createdAt,value
2023-05-05T00:01:34.994Z,7.60
2023-05-05T00:04:02.386Z,7.38
2023-05-05T00:06:29.723Z,7.78
2023-05-05T00:08:57.035Z,7.47
2023-05-05T00:11:25.340Z,8.43
2023-05-05T00:13:52.635Z,8.50
2023-05-05T00:16:20.095Z,8.20
2023-05-05T00:18:48.015Z,8.63
2023-05-05T00:21:15.810Z,8.70
2023-05-05T00:23:43.142Z,9.02
2023-05-05T00:26:10.460Z,9.35
2023-05-05T00:28:38.648Z,9.50
2023-05-05T00:31:06.456Z,9.60
2023-05-05T00:33:33.833Z,8.63
2023-05-05T00:36:01.221Z,9.88
2023-05-05T00:38:28.874Z,9.65
2023-05-05T00:40:56.346Z,10.27
2023-05-05T00:43:23.954Z,10.55
2023-05-05T00:45:54.847Z,10.13
2023-05-05T00:48:24.422Z,10.82
2023-05-05T00:50:51.769Z,9.90
2023-05-05T00:53:19.212Z,9.98
2023-05-05T00:55:46.955Z,9.35
2023-05-05T00:58:14.696Z,10.47
2023-05-05T01:00:42.087Z,8.15
2023-05-05T01:03:10.142Z,7.50
2023-05-05T01:05:46.678Z,6.90
2023-05-05T01:08:32.907Z,7.07
2023-05-05T01:11:04.015Z,6.17
2023-05-05T01:13:50.562Z,6.50
2023-05-05T01:16:25.845Z,6.50
2023-05-05T01:19:01.833Z,6.00
2023-05-05T01:21:43.927Z,5.82
2023-05-05T01:24:23.399Z,5.77
2023-05-05T01:27:06.253Z,6.20
2023-05-05T01:29:48.674Z,5.93
2023-05-05T01:32:19.082Z,5.80
2023-05-05T01:34:57.189Z,5.28
2023-05-05T01:37:27.724Z,5.83
2023-05-05T01:39:58.281Z,5.47
2023-05-05T01:42:26.766Z,4.68
2023-05-05T01:44:54.969Z,4.93
2023-05-05T01:47:23.324Z,5.13
2023-05-05T01:49:52.991Z,4.60
2023-05-05T01:52:20.728Z,5.00
2023-05-05T01:54:49.540Z,5.38
2023-05-05T01:57:17.788Z,5.03
2023-05-05T01:59:45.044Z,4.32
2023-05-05T02:02:13.725Z,5.67
2023-05-05T02:04:45.018Z,5.13
2023-05-05T02:07:16.180Z,5.30
2023-05-05T02:09:44.642Z,5.57
2023-05-05T02:12:12.695Z,5.72
2023-05-05T02:14:41.153Z,5.57
2023-05-05T02:17:08.618Z,5.65
2023-05-05T02:19:43.723Z,5.47
2023-05-05T02:22:12.328Z,5.60
2023-05-05T02:24:39.756Z,6.38
2023-05-05T02:27:08.103Z,6.53
2023-05-05T02:29:36.451Z,5.50
2023-05-05T02:32:06.847Z,5.68
2023-05-05T02:34:36.765Z,6.40
2023-05-05T02:37:10.739Z,6.18
2023-05-05T02:39:46.076Z,6.00
2023-05-05T02:42:19.731Z,4.80
2023-05-05T02:44:48.853Z,4.95
2023-05-05T02:47:16.555Z,4.95
2023-05-05T02:49:44.100Z,4.97
2023-05-05T02:52:11.668Z,4.97
2023-05-05T02:54:40.784Z,5.65
2023-05-05T02:57:16.398Z,5.25
2023-05-05T03:00:03.959Z,6.00
2023-05-05T03:02:39.714Z,6.43
2023-05-05T03:05:10.859Z,5.83
2023-05-05T03:08:01.705Z,5.90
2023-05-05T03:10:40.851Z,5.88
2023-05-05T03:13:10.251Z,4.97
2023-05-05T03:15:45.493Z,4.78
2023-05-05T03:18:15.541Z,3.97
2023-05-05T03:20:47.179Z,3.88
2023-05-05T03:23:20.830Z,3.33
2023-05-05T03:25:50.685Z,3.38
2023-05-05T03:28:28.876Z,3.50
2023-05-05T03:30:58.974Z,3.20
2023-05-05T03:33:26.621Z,3.72
2023-05-05T03:35:56.046Z,3.47
2023-05-05T03:38:23.519Z,3.60
2023-05-05T03:40:50.988Z,3.70
2023-05-05T03:43:21.360Z,3.67
2023-05-05T03:45:50.541Z,3.67
2023-05-05T03:48:18.427Z,3.65
2023-05-05T03:50:46.380Z,4.05
2023-05-05T03:53:14.861Z,4.28
2023-05-05T03:55:43.156Z,4.20
2023-05-05T03:58:11.568Z,3.97
2023-05-05T04:00:38.917Z,3.80
2023-05-05T04:03:06.650Z,4.30
2023-05-05T04:05:34.756Z,3.95
2023-05-05T04:08:03.340Z,4.53
2023-05-05T04:10:31.079Z,4.95
2023-05-05T04:12:58.907Z,5.05
2023-05-05T04:15:26.402Z,5.35
2023-05-05T04:17:54.024Z,5.38
2023-05-05T04:20:21.533Z,5.53
2023-05-05T04:22:50.201Z,5.55
2023-05-05T04:25:18.825Z,5.75
2023-05-05T04:27:47.722Z,5.82
2023-05-05T04:30:15.482Z,5.90
2023-05-05T04:32:42.925Z,6.33
2023-05-05T04:35:11.126Z,6.35
2023-05-05T04:37:38.831Z,6.25
2023-05-05T04:40:06.729Z,6.32
2023-05-05T04:42:36.642Z,6.55
2023-05-05T04:45:04.923Z,7.23
2023-05-05T04:47:32.610Z,6.18
2023-05-05T04:50:00.214Z,6.68
2023-05-05T04:52:28.629Z,6.65
2023-05-05T04:54:56.042Z,7.25
2023-05-05T04:57:23.314Z,8.13
2023-05-05T04:59:50.690Z,7.50
2023-05-05T05:02:18.354Z,7.70
2023-05-05T05:04:45.666Z,7.90
2023-05-05T05:07:15.107Z,7.50
2023-05-05T05:09:42.406Z,6.73
2023-05-05T05:12:09.890Z,8.60
2023-05-05T05:14:38.067Z,7.40
2023-05-05T05:17:07.049Z,7.82
2023-05-05T05:19:34.776Z,7.97
2023-05-05T05:22:02.840Z,7.60
2023-05-05T05:24:32.358Z,8.75
2023-05-05T05:26:59.755Z,9.02
2023-05-05T05:29:27.506Z,9.55
2023-05-05T05:31:55.466Z,9.05
2023-05-05T05:34:23.016Z,10.00
2023-05-05T05:36:50.897Z,10.95
2023-05-05T05:39:18.789Z,10.15
2023-05-05T05:41:46.578Z,10.48
2023-05-05T05:44:14.019Z,10.68
2023-05-05T05:46:41.990Z,10.97
2023-05-05T05:49:09.340Z,11.48
2023-05-05T05:51:36.793Z,10.77
2023-05-05T05:54:04.533Z,12.00
2023-05-05T05:56:31.991Z,10.70
2023-05-05T05:58:59.481Z,11.30
2023-05-05T06:01:27.442Z,12.35
2023-05-05T06:03:54.907Z,11.95
2023-05-05T06:06:22.554Z,12.35
2023-05-05T06:08:50.339Z,12.25
2023-05-05T06:11:17.670Z,11.67
2023-05-05T06:13:45.078Z,12.55
2023-05-05T06:16:12.581Z,11.55
2023-05-05T06:18:42.719Z,13.10
2023-05-05T06:21:10.186Z,12.13
2023-05-05T06:23:37.588Z,12.40
2023-05-05T06:26:07.087Z,13.70
2023-05-05T06:28:34.425Z,12.50
2023-05-05T06:31:01.784Z,12.38
2023-05-05T06:33:29.100Z,12.45
2023-05-05T06:35:56.386Z,12.83
2023-05-05T06:38:23.709Z,11.38
2023-05-05T06:40:51.365Z,11.57
2023-05-05T06:43:18.844Z,12.18
2023-05-05T06:45:53.203Z,10.98
2023-05-05T06:48:20.569Z,11.93
2023-05-05T06:50:47.952Z,10.00
2023-05-05T06:53:15.257Z,10.40
2023-05-05T06:55:44.142Z,11.00
2023-05-05T06:58:11.929Z,10.88
2023-05-05T07:00:42.804Z,10.17
2023-05-05T07:03:10.433Z,9.32
2023-05-05T07:05:37.807Z,9.35
2023-05-05T07:08:05.209Z,9.30
2023-05-05T07:10:33.524Z,8.20
2023-05-05T07:13:01.073Z,7.10
2023-05-05T07:15:29.829Z,7.28
2023-05-05T07:17:57.752Z,7.45
2023-05-05T07:20:25.511Z,7.70
2023-05-05T07:22:52.834Z,8.05
2023-05-05T07:25:20.349Z,8.73
2023-05-05T07:27:47.691Z,7.20
2023-05-05T07:30:18.087Z,6.68
2023-05-05T07:32:46.132Z,7.45
2023-05-05T07:35:13.683Z,8.38
2023-05-05T07:37:41.062Z,7.83
2023-05-05T07:40:08.912Z,7.35
2023-05-05T07:42:36.532Z,8.23
2023-05-05T07:45:04.322Z,8.20
2023-05-05T07:47:31.815Z,7.18
2023-05-05T07:49:59.341Z,7.20
2023-05-05T07:52:43.664Z,6.97
2023-05-05T07:55:13.745Z,7.05
2023-05-05T07:57:41.138Z,5.75
2023-05-05T08:00:09.587Z,6.07
2023-05-05T08:02:41.258Z,6.40
2023-05-05T08:05:09.486Z,6.97
2023-05-05T08:07:41.107Z,5.88
2023-05-05T08:10:12.290Z,6.90
2023-05-05T08:12:40.573Z,6.55
2023-05-05T08:15:08.952Z,5.00
2023-05-05T08:17:50.141Z,5.13
2023-05-05T08:20:18.216Z,4.45
2023-05-05T08:22:46.170Z,5.40
2023-05-05T08:25:14.154Z,5.68
2023-05-05T08:27:42.133Z,5.10
2023-05-05T08:30:09.810Z,5.60
2023-05-05T08:32:38.662Z,4.05
2023-05-05T08:35:06.835Z,5.72
2023-05-05T08:37:34.962Z,5.32
2023-05-05T08:40:02.311Z,6.73
2023-05-05T08:42:38.210Z,6.28
2023-05-05T08:45:07.721Z,6.45
2023-05-05T08:47:35.996Z,6.55
2023-05-05T08:50:05.628Z,5.65
2023-05-05T08:52:39.425Z,5.43
2023-05-05T08:55:14.184Z,6.97
2023-05-05T08:58:09.019Z,7.57
2023-05-05T09:00:36.949Z,7.22
2023-05-05T09:03:05.703Z,7.60
2023-05-05T09:05:33.073Z,7.83
2023-05-05T09:08:01.842Z,7.18
2023-05-05T09:10:29.261Z,7.50
2023-05-05T09:12:56.679Z,7.88
2023-05-05T09:15:23.962Z,6.15
2023-05-05T09:17:51.488Z,5.00
2023-05-05T09:20:18.901Z,4.70
2023-05-05T09:22:46.981Z,5.68
2023-05-05T09:25:15.518Z,6.30
2023-05-05T09:27:45.812Z,5.55
2023-05-05T09:30:16.432Z,5.50
2023-05-05T09:32:44.802Z,6.38
2023-05-05T09:35:12.268Z,6.43
2023-05-05T09:37:39.662Z,3.15
2023-05-05T09:40:09.311Z,2.13
2023-05-05T09:42:40.202Z,1.60
2023-05-05T09:45:19.958Z,2.03
2023-05-05T09:47:48.227Z,1.65
2023-05-05T09:50:18.517Z,1.90
2023-05-05T09:52:58.329Z,2.13
2023-05-05T09:55:25.932Z,1.80
2023-05-05T09:57:53.287Z,2.00
2023-05-05T10:00:21.182Z,2.03
2023-05-05T10:02:48.555Z,1.85
2023-05-05T10:05:17.161Z,2.15
2023-05-05T10:07:45.848Z,3.07
2023-05-05T10:10:14.595Z,2.65
2023-05-05T10:12:42.220Z,3.40
2023-05-05T10:15:10.604Z,2.60
2023-05-05T10:17:38.998Z,2.35
2023-05-05T10:20:08.467Z,2.70
2023-05-05T10:22:36.312Z,2.10
2023-05-05T10:25:13.987Z,2.20
2023-05-05T10:27:47.017Z,3.00
2023-05-05T10:30:34.689Z,2.30
2023-05-05T10:33:30.362Z,3.57
2023-05-05T10:36:00.447Z,2.60
2023-05-05T10:38:30.888Z,3.13
2023-05-05T10:40:58.732Z,2.63
2023-05-05T10:43:26.870Z,3.08
2023-05-05T10:45:54.847Z,3.00
2023-05-05T10:48:25.689Z,3.05
2023-05-05T10:50:55.348Z,3.20
2023-05-05T10:53:37.526Z,5.70
2023-05-05T10:56:26.630Z,3.13
2023-05-05T10:59:00.148Z,3.67
2023-05-05T11:01:32.231Z,4.00
2023-05-05T11:04:18.765Z,3.50
2023-05-05T11:07:04.695Z,3.58
2023-05-05T11:09:32.128Z,3.45
2023-05-05T11:12:03.556Z,3.40
2023-05-05T11:14:31.086Z,5.57
2023-05-05T11:16:58.466Z,4.60
2023-05-05T11:19:44.770Z,3.60
2023-05-05T11:22:12.361Z,5.78
2023-05-05T11:24:42.768Z,5.00
2023-05-05T11:27:10.891Z,4.30
2023-05-05T11:30:07.984Z,4.03
2023-05-05T11:32:36.138Z,10.73
2023-05-05T11:35:04.026Z,4.53
2023-05-05T11:37:31.473Z,3.73
2023-05-05T11:40:17.228Z,4.60
2023-05-05T11:42:44.611Z,4.32
2023-05-05T11:45:22.201Z,4.03
2023-05-05T11:47:49.714Z,4.13
2023-05-05T11:50:21.654Z,4.77
2023-05-05T11:52:49.599Z,4.50
2023-05-05T11:55:21.454Z,4.90
2023-05-05T11:57:48.933Z,5.55
2023-05-05T12:00:16.655Z,6.05
2023-05-05T12:02:44.219Z,6.53
2023-05-05T12:05:11.772Z,6.28
2023-05-05T12:07:39.166Z,6.25
2023-05-05T12:10:07.709Z,6.72
2023-05-05T12:12:36.294Z,7.43
2023-05-05T12:15:04.333Z,6.70
2023-05-05T12:17:39.850Z,6.97
2023-05-05T12:20:08.868Z,7.20
2023-05-05T12:22:36.489Z,6.82
2023-05-05T12:25:05.504Z,4.80
2023-05-05T12:27:32.974Z,4.10
2023-05-05T12:30:16.780Z,3.00
2023-05-05T12:32:44.688Z,3.28
2023-05-05T12:35:12.816Z,3.90
2023-05-05T12:37:40.231Z,4.00
2023-05-05T12:40:08.952Z,4.43
2023-05-05T12:42:40.130Z,4.53
2023-05-05T12:45:08.373Z,4.50
2023-05-05T12:47:36.879Z,4.05
2023-05-05T12:50:04.420Z,5.60
2023-05-05T12:52:41.110Z,4.87
2023-05-05T12:55:08.894Z,4.90
2023-05-05T12:57:36.612Z,4.68
2023-05-05T13:00:14.308Z,4.13
2023-05-05T13:02:41.774Z,3.85
2023-05-05T13:05:09.885Z,3.40
2023-05-05T13:07:37.933Z,4.00
2023-05-05T13:10:10.544Z,3.63
2023-05-05T13:12:37.891Z,3.95
2023-05-05T13:15:05.418Z,3.85
2023-05-05T13:17:34.705Z,3.93
2023-05-05T13:20:02.225Z,3.20
2023-05-05T13:22:29.514Z,3.97
2023-05-05T13:24:56.891Z,3.72
2023-05-05T13:27:24.377Z,3.33
2023-05-05T13:29:51.693Z,2.87
2023-05-05T13:32:19.031Z,3.22
2023-05-05T13:34:46.310Z,1.90
2023-05-05T13:37:13.688Z,2.30
2023-05-05T13:39:41.485Z,2.55
2023-05-05T13:42:08.835Z,2.10
2023-05-05T13:44:36.195Z,2.33
2023-05-05T13:47:03.785Z,2.40
2023-05-05T13:49:31.135Z,2.28
2023-05-05T13:51:58.618Z,1.90
2023-05-05T13:54:26.169Z,1.87
2023-05-05T13:56:53.625Z,1.55
2023-05-05T13:59:21.798Z,1.77
2023-05-05T14:01:49.512Z,1.38
2023-05-05T14:04:16.821Z,1.80
2023-05-05T14:06:44.242Z,1.77
2023-05-05T14:09:11.558Z,1.58
2023-05-05T14:11:38.895Z,2.17
2023-05-05T14:14:06.224Z,2.50
2023-05-05T14:16:33.649Z,2.42
2023-05-05T14:19:01.620Z,3.40
2023-05-05T14:21:28.975Z,2.58
2023-05-05T14:23:56.328Z,1.88
2023-05-05T14:26:23.764Z,2.83
2023-05-05T14:28:51.275Z,2.92
2023-05-05T14:31:18.661Z,2.13
2023-05-05T14:33:46.200Z,1.98
2023-05-05T14:36:14.314Z,2.10
2023-05-05T14:38:43.088Z,1.60
2023-05-05T14:41:10.466Z,1.88
2023-05-05T14:43:37.918Z,1.97
2023-05-05T14:46:06.862Z,1.92
2023-05-05T14:48:34.670Z,1.20
2023-05-05T14:51:02.365Z,1.70
2023-05-05T14:53:29.811Z,1.42
2023-05-05T14:55:57.185Z,1.97
2023-05-05T14:58:24.827Z,1.90
2023-05-05T15:00:55.323Z,4.00
2023-05-05T15:03:22.734Z,2.75
2023-05-05T15:05:50.120Z,1.60
2023-05-05T15:08:19.228Z,1.57
2023-05-05T15:10:46.797Z,1.30
2023-05-05T15:13:14.502Z,1.85
2023-05-05T15:15:41.912Z,1.77
2023-05-05T15:18:09.278Z,1.80
2023-05-05T15:20:36.578Z,1.53
2023-05-05T15:23:04.260Z,2.33
2023-05-05T15:25:31.591Z,1.50
2023-05-05T15:28:00.878Z,2.22
2023-05-05T15:30:28.486Z,1.45
2023-05-05T15:32:55.957Z,2.40
2023-05-05T15:35:25.571Z,4.35
2023-05-05T15:37:54.572Z,1.45
2023-05-05T15:40:22.031Z,2.15
2023-05-05T15:42:52.272Z,1.70
2023-05-05T15:45:19.646Z,1.50
2023-05-05T15:47:47.894Z,1.80
2023-05-05T15:50:15.881Z,1.40
2023-05-05T15:52:43.398Z,1.00
2023-05-05T15:55:11.185Z,1.60
2023-05-05T15:57:41.436Z,1.50
2023-05-05T16:00:09.434Z,1.42
2023-05-05T16:02:38.106Z,1.40
2023-05-05T16:05:05.808Z,1.30
2023-05-05T16:07:33.200Z,1.60
2023-05-05T16:10:00.568Z,1.47
2023-05-05T16:12:27.838Z,1.50
2023-05-05T16:14:55.668Z,1.58
2023-05-05T16:17:23.030Z,1.20
2023-05-05T16:19:50.902Z,1.38
2023-05-05T16:22:18.411Z,1.60
2023-05-05T16:24:45.838Z,0.98
2023-05-05T16:27:13.439Z,1.30
2023-05-05T16:29:41.158Z,1.63
2023-05-05T16:32:08.448Z,1.48
2023-05-05T16:34:35.890Z,1.37
2023-05-05T16:37:03.452Z,1.45
2023-05-05T16:39:33.028Z,2.17
2023-05-05T16:42:00.379Z,1.90
2023-05-05T16:44:27.730Z,1.70
2023-05-05T16:46:54.947Z,1.53
2023-05-05T16:49:24.229Z,1.80
2023-05-05T16:51:53.454Z,1.75
2023-05-05T16:54:20.841Z,2.10
2023-05-05T16:56:48.148Z,1.67
2023-05-05T16:59:16.749Z,1.83
2023-05-05T17:01:44.106Z,2.63
2023-05-05T17:04:11.997Z,2.30
2023-05-05T17:06:39.396Z,2.53
2023-05-05T17:09:06.742Z,1.90
2023-05-05T17:11:34.082Z,2.30
2023-05-05T17:14:01.767Z,2.58
2023-05-05T17:16:29.180Z,1.92
2023-05-05T17:18:56.465Z,2.72
2023-05-05T17:21:24.083Z,2.13
2023-05-05T17:23:51.413Z,2.50
2023-05-05T17:26:18.761Z,2.25
2023-05-05T17:28:46.108Z,2.10
2023-05-05T17:31:13.572Z,2.00
2023-05-05T17:33:40.859Z,2.15
2023-05-05T17:36:08.337Z,2.63
2023-05-05T17:38:35.636Z,2.80
2023-05-05T17:41:02.965Z,2.45
2023-05-05T17:43:30.277Z,2.58
2023-05-05T17:45:57.602Z,2.75
2023-05-05T17:48:25.156Z,2.90
2023-05-05T17:50:52.569Z,2.90
2023-05-05T17:53:19.867Z,3.13
2023-05-05T17:55:47.169Z,3.08
2023-05-05T17:58:14.535Z,2.70
2023-05-05T18:00:41.898Z,3.30
2023-05-05T18:03:09.365Z,3.50
2023-05-05T18:05:36.763Z,3.28
2023-05-05T18:08:04.111Z,3.38
2023-05-05T18:10:31.548Z,2.65
2023-05-05T18:12:58.920Z,3.60
2023-05-05T18:15:26.522Z,3.33
2023-05-05T18:17:54.259Z,3.17
2023-05-05T18:20:21.619Z,3.65
2023-05-05T18:22:49.127Z,2.78
2023-05-05T18:25:16.614Z,2.50
2023-05-05T18:27:44.468Z,3.05
2023-05-05T18:30:12.019Z,2.90
2023-05-05T18:32:39.418Z,3.10
2023-05-05T18:35:07.412Z,3.42
2023-05-05T18:37:34.973Z,3.27
2023-05-05T18:40:02.361Z,3.17
2023-05-05T18:42:29.662Z,2.85
2023-05-05T18:44:57.015Z,3.20
2023-05-05T18:47:24.367Z,3.47
2023-05-05T18:49:51.667Z,3.03
2023-05-05T18:52:19.039Z,3.22
2023-05-05T18:54:46.324Z,3.67
2023-05-05T18:57:13.686Z,3.42
2023-05-05T18:59:41.023Z,3.85
2023-05-05T19:02:08.374Z,3.33
2023-05-05T19:04:37.944Z,4.45
2023-05-05T19:07:05.551Z,3.28
2023-05-05T19:09:32.868Z,3.78
2023-05-05T19:12:00.347Z,3.63
2023-05-05T19:14:27.660Z,3.67
2023-05-05T19:16:58.969Z,3.60
2023-05-05T19:19:26.462Z,2.90
2023-05-05T19:21:53.801Z,3.42
2023-05-05T19:24:21.169Z,3.15
2023-05-05T19:26:48.541Z,3.90
2023-05-05T19:29:16.193Z,3.47
2023-05-05T19:31:43.533Z,3.22
2023-05-05T19:34:11.316Z,3.50
2023-05-05T19:36:38.881Z,3.38
2023-05-05T19:39:06.236Z,3.63
2023-05-05T19:41:35.166Z,3.80
2023-05-05T19:44:03.105Z,4.10
2023-05-05T19:46:30.588Z,4.03
2023-05-05T19:48:57.933Z,3.88
2023-05-05T19:51:25.307Z,4.07
2023-05-05T19:53:52.677Z,4.35
2023-05-05T19:56:19.980Z,4.05
2023-05-05T19:58:54.477Z,3.85
2023-05-05T20:01:21.807Z,4.13
2023-05-05T20:03:49.376Z,4.10
2023-05-05T20:06:16.880Z,4.38
2023-05-05T20:08:44.229Z,4.50
2023-05-05T20:11:11.585Z,4.53
2023-05-05T20:13:39.043Z,4.20
2023-05-05T20:16:07.429Z,4.50
2023-05-05T20:18:34.752Z,4.65
2023-05-05T20:21:02.616Z,4.05
2023-05-05T20:23:30.041Z,3.88
2023-05-05T20:25:57.375Z,4.57
2023-05-05T20:28:24.795Z,4.43
2023-05-05T20:30:52.144Z,4.38
2023-05-05T20:33:19.807Z,3.80
2023-05-05T20:35:47.114Z,4.55
2023-05-05T20:38:14.523Z,3.80
2023-05-05T20:40:42.060Z,4.33
2023-05-05T20:43:09.362Z,4.28
2023-05-05T20:45:37.230Z,4.57
2023-05-05T20:48:07.396Z,4.60
2023-05-05T20:50:37.426Z,4.13
2023-05-05T20:53:05.193Z,4.47
2023-05-05T20:55:32.651Z,4.22
2023-05-05T20:58:00.067Z,4.25
2023-05-05T21:00:27.457Z,4.63
2023-05-05T21:02:56.873Z,3.90
2023-05-05T21:05:24.618Z,4.33
2023-05-05T21:07:54.180Z,4.20
2023-05-05T21:10:21.528Z,4.70
2023-05-05T21:12:48.825Z,5.10
2023-05-05T21:15:16.734Z,4.78
2023-05-05T21:17:44.283Z,4.80
2023-05-05T21:20:12.236Z,4.53
2023-05-05T21:22:39.985Z,4.38
2023-05-05T21:25:14.580Z,4.82
2023-05-05T21:27:42.071Z,5.05
2023-05-05T21:30:11.146Z,5.00
2023-05-05T21:32:39.522Z,5.53
2023-05-05T21:35:08.077Z,4.65
2023-05-05T21:37:35.606Z,5.18
2023-05-05T21:40:02.949Z,5.55
2023-05-05T21:42:30.888Z,5.80
2023-05-05T21:44:58.236Z,5.82
2023-05-05T21:47:25.617Z,5.00
2023-05-05T21:49:52.896Z,5.05
2023-05-05T21:52:20.272Z,6.28
2023-05-05T21:54:47.690Z,5.60
2023-05-05T21:57:15.066Z,5.38
2023-05-05T21:59:42.554Z,5.60
2023-05-05T22:02:09.804Z,6.15
2023-05-05T22:04:37.168Z,5.43
2023-05-05T22:07:04.506Z,5.50
2023-05-05T22:09:31.871Z,5.65
2023-05-05T22:11:59.215Z,6.07
2023-05-05T22:14:26.556Z,5.57
2023-05-05T22:16:53.878Z,6.40
2023-05-05T22:19:21.212Z,6.50
2023-05-05T22:21:48.525Z,6.85
2023-05-05T22:24:15.820Z,6.50
2023-05-05T22:26:43.448Z,6.63
2023-05-05T22:29:11.420Z,5.93
2023-05-05T22:31:38.976Z,5.83
2023-05-05T22:34:06.336Z,5.40
2023-05-05T22:36:33.645Z,6.72
2023-05-05T22:39:01.011Z,6.70
2023-05-05T22:41:28.359Z,7.22
2023-05-05T22:43:55.627Z,7.77
2023-05-05T22:46:22.929Z,6.88
2023-05-05T22:48:50.262Z,7.13
2023-05-05T22:51:17.860Z,7.22
2023-05-05T22:53:45.256Z,7.20
2023-05-05T22:56:12.618Z,7.40
2023-05-05T22:58:39.914Z,7.38
2023-05-05T23:01:07.740Z,6.22
2023-05-05T23:03:35.031Z,7.07
2023-05-05T23:06:02.368Z,7.80
2023-05-05T23:08:29.700Z,7.00
2023-05-05T23:10:57.217Z,6.97
2023-05-05T23:13:24.576Z,7.28
2023-05-05T23:15:51.986Z,8.10
2023-05-05T23:18:19.229Z,7.93
2023-05-05T23:20:46.518Z,7.77
2023-05-05T23:23:13.805Z,6.60
2023-05-05T23:25:41.152Z,7.78
2023-05-05T23:28:08.545Z,6.93
2023-05-05T23:30:35.923Z,7.43
2023-05-05T23:33:04.243Z,7.17
2023-05-05T23:35:31.612Z,7.80
2023-05-05T23:37:58.888Z,7.35
2023-05-05T23:40:26.250Z,7.25
2023-05-05T23:42:53.636Z,8.02
2023-05-05T23:45:20.933Z,7.97
2023-05-05T23:47:48.228Z,7.15
2023-05-05T23:50:15.744Z,8.43
2023-05-05T23:52:43.006Z,7.15
2023-05-05T23:55:10.862Z,8.77
2023-05-05T23:57:38.478Z,8.43
